Time;durP1;ratioP1;P1;durP2;ratioP2;P2;SDS_P1;SDS_P2;PMS_P1;PMS_P2;Temp;Humidity;BMP_temperature;BMP_pressure;BME280_temperature;BME280_humidity;BME280_pressure;Samples;Min_cycle;Max_cycle;Signal;HPM_P1;HPM_P2
2021/09/30 00:00:18;;;;;;;;;;;;;;;21.71;63.84;100839.44;2074585;28;19909;-36
2021/09/30 00:01:18;;;;;;;;;;;;;;;21.71;63.86;100839.44;2075828;28;19994;-36
2021/09/30 00:02:19;;;;;;;;;;;;;;;21.71;63.76;100839.44;2073875;28;20581;-36
2021/09/30 00:03:19;;;;;;;;;;;;;;;21.71;63.96;100835.81;2078139;28;19905;-36
2021/09/30 00:04:19;;;;;;;;;;;;;;;21.71;63.83;100833.94;2071232;28;20517;-36
2021/09/30 00:05:20;;;;;;;;;;;;;;;21.71;63.80;100836.69;2074085;28;20235;-36
2021/09/30 00:06:20;;;;;;;;;;;;;;;21.71;63.80;100839.44;2074964;28;19917;-36
2021/09/30 00:07:21;;;;;;;;;;;;;;;21.71;63.75;100833.09;2075791;28;19915;-36
2021/09/30 00:08:21;;;;;;;;;;;;;;;21.71;63.72;100836.69;2077725;28;19947;-36
2021/09/30 00:09:22;;;;;;;;;;;;;;;21.70;63.69;100832.19;2076722;28;19923;-36
2021/09/30 00:10:23;;;;;;;;;;;;;;;21.70;63.75;100837.69;2076961;28;20334;-36
2021/09/30 00:11:29;;;;;;;;;;;;;;;21.69;63.86;100833.22;2064760;28;19925;-36
2021/09/30 00:12:33;;;;;;;;;;;;;;;21.70;63.96;100826.72;2065065;28;20613;-36
2021/09/30 00:14:53;;;;;;;;;;;;;;;21.70;63.73;100832.19;2074796;28;19978;-36
2021/09/30 00:33:20;;;;;;;;;;;;;;;21.69;64.06;100827.72;2074523;28;19905;-36
2021/09/30 00:34:33;;;;;;;;;;;;;;;21.70;64.20;100828.59;2074861;28;19921;-36
2021/09/30 00:35:55;;;;;;;;;;;;;;;21.69;64.11;100830.47;2071699;28;19924;-36
2021/09/30 00:41:17;;;;;;;;;;;;;;;21.69;64.23;100825.00;2048300;28;19918;-36
2021/09/30 00:42:35;;;;;;;;;;;;;;;21.69;63.84;100829.63;2072664;28;19913;-36
2021/09/30 00:46:22;;;;;;;;;;;;;;;21.68;63.98;100823.28;2076722;28;20361;-36
2021/09/30 00:47:46;;;;;;;;;;;;;;;21.69;64.20;100825.00;2074217;28;19921;-36
2021/09/30 00:53:36;;;;;;;;;;;;;;;21.68;63.97;100828.75;2070699;28;19916;-36
2021/09/30 02:40:10;;;;;;;;;;;;;;;21.63;64.22;100748.75;2076665;28;19956;-39
2021/09/30 02:58:37;;;;;;;;;;;;;;;21.62;63.94;100763.50;2074649;28;19909;-39
2021/09/30 02:59:38;;;;;;;;;;;;;;;21.63;64.27;100759.72;2071390;28;19972;-39
2021/09/30 03:00:41;;;;;;;;;;;;;;;21.62;63.95;100758.88;2076799;28;20226;-39
2021/09/30 03:01:44;;;;;;;;;;;;;;;21.62;63.95;100749.78;2074301;28;19913;-39
2021/09/30 03:02:47;;;;;;;;;;;;;;;21.62;64.22;100758.88;2072858;28;20280;-39
2021/09/30 03:03:48;;;;;;;;;;;;;;;21.63;64.09;100756.97;2076712;28;19947;-39
2021/09/30 03:04:48;;;;;;;;;;;;;;;21.62;64.18;100758.00;2072138;28;19967;-40
2021/09/30 03:05:56;;;;;;;;;;;;;;;21.62;64.13;100758.88;2075508;28;19924;-39
2021/09/30 03:06:57;;;;;;;;;;;;;;;21.62;64.08;100758.00;2073802;28;19920;-39
2021/09/30 03:07:58;;;;;;;;;;;;;;;21.62;64.12;100758.00;2076184;28;20570;-39
2021/09/30 03:09:00;;;;;;;;;;;;;;;21.62;64.09;100758.00;2076841;28;19921;-40
2021/09/30 03:10:02;;;;;;;;;;;;;;;21.63;64.12;100759.72;2073452;28;19913;-40
2021/09/30 03:11:03;;;;;;;;;;;;;;;21.62;64.10;100758.00;2074418;28;19928;-39
2021/09/30 03:12:07;;;;;;;;;;;;;;;21.61;64.13;100759.91;2074866;28;20007;-40
2021/09/30 03:13:07;;;;;;;;;;;;;;;21.61;63.85;100757.16;2071823;28;19921;-40
2021/09/30 03:14:08;;;;;;;;;;;;;;;21.61;63.86;100761.78;2074698;28;19956;-39
2021/09/30 03:15:36;;;;;;;;;;;;;;;21.61;64.01;100757.16;2074504;28;19939;-39
2021/09/30 03:16:44;;;;;;;;;;;;;;;21.62;64.00;100758.00;2073794;28;19917;-40
2021/09/30 03:17:51;;;;;;;;;;;;;;;21.62;64.00;100752.53;2075018;28;20025;-39
2021/09/30 03:18:55;;;;;;;;;;;;;;;21.61;64.03;100756.28;2076202;28;19967;-39
2021/09/30 03:20:02;;;;;;;;;;;;;;;21.61;64.13;100751.66;2074346;28;19966;-39
2021/09/30 03:23:22;;;;;;;;;;;;;;;21.61;64.21;100750.81;2072919;28;19929;-39
2021/09/30 03:24:23;;;;;;;;;;;;;;;21.61;64.10;100745.31;2070663;28;19959;-39
2021/09/30 03:25:24;;;;;;;;;;;;;;;21.61;64.01;100742.56;2073048;28;19917;-39
2021/09/30 03:26:25;;;;;;;;;;;;;;;21.60;63.99;100744.44;2067989;28;20031;-39
2021/09/30 03:27:26;;;;;;;;;;;;;;;21.61;63.90;100742.56;2066972;28;19921;-40
2021/09/30 03:28:27;;;;;;;;;;;;;;;21.61;63.94;100742.56;2073418;28;19917;-39
2021/09/30 03:29:28;;;;;;;;;;;;;;;21.60;64.23;100741.69;2066455;28;19925;-39
2021/09/30 03:30:29;;;;;;;;;;;;;;;21.60;64.14;100747.16;2064423;28;20622;-39
2021/09/30 03:31:31;;;;;;;;;;;;;;;21.61;64.06;100742.56;2076756;28;20145;-39
2021/09/30 03:32:31;;;;;;;;;;;;;;;21.61;64.14;100750.81;2070672;28;19917;-40
2021/09/30 03:33:31;;;;;;;;;;;;;;;21.62;64.17;100747.03;2074075;28;19909;-40
2021/09/30 03:34:32;;;;;;;;;;;;;;;21.61;64.30;100739.84;2077130;28;20390;-40
2021/09/30 03:35:34;;;;;;;;;;;;;;;21.60;64.24;100738.94;2072804;28;19916;-40
2021/09/30 03:36:35;;;;;;;;;;;;;;;21.61;64.17;100739.84;2075502;28;19916;-40
2021/09/30 03:37:35;;;;;;;;;;;;;;;21.60;64.19;100738.09;2073182;28;19974;-40
2021/09/30 03:38:36;;;;;;;;;;;;;;;21.62;64.11;100744.28;2074485;28;19959;-39
2021/09/30 03:39:36;;;;;;;;;;;;;;;21.60;64.08;100738.94;2077048;28;19940;-40
2021/09/30 03:40:37;;;;;;;;;;;;;;;21.61;64.23;100739.84;2073371;28;19935;-39
2021/09/30 03:41:40;;;;;;;;;;;;;;;21.60;64.04;100738.94;2075639;28;19923;-40
2021/09/30 03:42:40;;;;;;;;;;;;;;;21.60;64.00;100744.44;2075088;28;19947;-40
2021/09/30 03:43:41;;;;;;;;;;;;;;;21.61;64.02;100745.31;2079217;28;19905;-39
2021/09/30 03:44:41;;;;;;;;;;;;;;;21.60;64.09;100738.09;2076642;28;19923;-39
2021/09/30 03:45:42;;;;;;;;;;;;;;;21.60;64.23;100743.56;2070808;28;20268;-39
2021/09/30 03:46:45;;;;;;;;;;;;;;;21.61;64.04;100742.56;2071192;28;20397;-39
2021/09/30 03:47:46;;;;;;;;;;;;;;;21.60;64.01;100738.09;2070819;28;19924;-40
2021/09/30 03:48:53;;;;;;;;;;;;;;;21.60;64.03;100743.56;2066381;28;20225;-39
2021/09/30 03:49:54;;;;;;;;;;;;;;;21.59;64.16;100731.75;2072339;28;20642;-39
2021/09/30 03:51:21;;;;;;;;;;;;;;;21.60;63.97;100735.34;2075954;28;19921;-39
2021/09/30 03:57:38;;;;;;;;;;;;;;;21.60;64.22;100735.34;2074508;28;19919;-39
2021/09/30 03:59:39;;;;;;;;;;;;;;;21.59;63.93;100731.75;2076734;28;19952;-39
2021/09/30 04:00:39;;;;;;;;;;;;;;;21.60;64.15;100732.59;2076183;28;19917;-39
2021/09/30 04:01:40;;;;;;;;;;;;;;;21.59;64.20;100734.47;2074545;28;19917;-40
2021/09/30 04:02:40;;;;;;;;;;;;;;;21.59;64.13;100733.63;2076324;28;20341;-39
2021/09/30 04:03:40;;;;;;;;;;;;;;;21.60;64.33;100738.09;2074188;28;19943;-39
2021/09/30 04:04:41;;;;;;;;;;;;;;;21.59;64.24;100737.22;2072884;28;20315;-39
2021/09/30 04:05:41;;;;;;;;;;;;;;;21.60;64.16;100746.31;2073267;28;19917;-40
2021/09/30 04:06:42;;;;;;;;;;;;;;;21.59;64.07;100731.75;2074775;28;19916;-39
2021/09/30 04:07:42;;;;;;;;;;;;;;;21.59;64.27;100733.63;2074692;28;19916;-39
2021/09/30 04:08:43;;;;;;;;;;;;;;;21.59;64.15;100734.47;2064523;28;20426;-39
2021/09/30 04:09:44;;;;;;;;;;;;;;;21.59;63.99;100737.22;2068340;28;20315;-40
2021/09/30 04:10:45;;;;;;;;;;;;;;;21.60;64.28;100738.09;2077347;28;19916;-39
2021/09/30 04:11:45;;;;;;;;;;;;;;;21.59;64.28;100739.13;2076491;28;19924;-39
2021/09/30 04:12:45;;;;;;;;;;;;;;;21.60;64.21;100732.59;2075083;28;19916;-40
2021/09/30 04:13:47;;;;;;;;;;;;;;;21.59;64.16;100736.38;2073280;28;20383;-39
2021/09/30 04:14:47;;;;;;;;;;;;;;;21.59;64.07;100729.00;2075253;28;19980;-39
2021/09/30 04:15:50;;;;;;;;;;;;;;;21.59;64.11;100737.22;2075210;28;20359;-39
2021/09/30 04:16:50;;;;;;;;;;;;;;;21.58;64.40;100729.13;2068472;28;20024;-39
2021/09/30 04:17:51;;;;;;;;;;;;;;;21.57;64.18;100731.03;2070866;28;20234;-39
2021/09/30 04:18:51;;;;;;;;;;;;;;;21.57;64.07;100739.25;2075054;28;19956;-39
2021/09/30 04:19:51;;;;;;;;;;;;;;;21.58;64.00;100740.09;2075640;28;20340;-39
2021/09/30 04:20:52;;;;;;;;;;;;;;;21.59;64.21;100741.84;2076026;28;19923;-39
2021/09/30 04:21:53;;;;;;;;;;;;;;;21.57;64.24;100742.00;2072109;28;19917;-39
2021/09/30 04:22:53;;;;;;;;;;;;;;;21.59;64.04;100736.38;2065029;28;20012;-39
2021/09/30 04:23:54;;;;;;;;;;;;;;;;;;2054876;28;21142;-39
2021/09/30 04:24:54;;;;;;;;;;;;;;;21.58;64.42;100734.63;2063742;28;20348;-39
2021/09/30 04:25:54;;;;;;;;;;;;;;;;;;2073220;28;19913;-39
2021/09/30 04:26:55;;;;;;;;;;;;;;;21.59;64.05;100739.97;2075238;28;19921;-39
2021/09/30 04:27:55;;;;;;;;;;;;;;;;;;2063695;28;19948;-39
2021/09/30 04:28:56;;;;;;;;;;;;;;;;;;2065933;28;19929;-39
2021/09/30 04:29:56;;;;;;;;;;;;;;;21.57;63.96;100743.88;2064554;28;20251;-39
2021/09/30 04:30:56;;;;;;;;;;;;;;;;;;2066078;28;20334;-39
2021/09/30 04:31:57;;;;;;;;;;;;;;;21.57;63.64;100750.22;2070308;28;20370;-39
2021/09/30 04:32:57;;;;;;;;;;;;;;;21.58;63.65;100751.09;2068715;28;20361;-40
2021/09/30 04:33:57;;;;;;;;;;;;;;;21.57;63.81;100754.84;2067863;28;19974;-39
2021/09/30 04:34:58;;;;;;;;;;;;;;;21.57;63.70;100752.13;2065234;28;19987;-39
2021/09/30 04:35:58;;;;;;;;;;;;;;;21.56;63.60;100750.41;2074182;28;19964;-39
2021/09/30 04:36:59;;;;;;;;;;;;;;;21.56;63.83;100750.41;2074046;28;20286;-39
2021/09/30 04:37:59;;;;;;;;;;;;;;;21.57;63.60;100749.38;2074040;28;19944;-39
2021/09/30 04:38:59;;;;;;;;;;;;;;;21.56;63.56;100753.13;2075520;28;19921;-39
2021/09/30 04:40:00;;;;;;;;;;;;;;;21.56;63.57;100748.50;2068793;28;19917;-39
2021/09/30 04:41:00;;;;;;;;;;;;;;;21.56;63.76;100751.25;2064589;28;20613;-39
2021/09/30 04:42:00;;;;;;;;;;;;;;;21.55;63.44;100755.00;2072719;28;19927;-39
2021/09/30 04:43:01;;;;;;;;;;;;;;;21.56;63.68;100758.63;2073703;28;19932;-39
2021/09/30 04:44:02;;;;;;;;;;;;;;;21.56;63.67;100758.63;2074933;28;19917;-39
2021/09/30 04:45:02;;;;;;;;;;;;;;;21.55;63.42;100752.25;2071094;28;19925;-39
2021/09/30 04:46:03;;;;;;;;;;;;;;;21.56;63.71;100758.63;2073077;28;20131;-39
2021/09/30 04:47:03;;;;;;;;;;;;;;;21.56;63.61;100758.63;2071504;28;19960;-39
2021/09/30 04:48:04;;;;;;;;;;;;;;;21.56;63.57;100754.00;2074674;28;20266;-39
2021/09/30 04:49:04;;;;;;;;;;;;;;;21.56;63.45;100753.13;2073844;28;19921;-38
2021/09/30 04:50:05;;;;;;;;;;;;;;;21.57;63.50;100749.38;2074646;28;19913;-39
2021/09/30 04:51:05;;;;;;;;;;;;;;;21.56;63.41;100739.44;2071117;28;19944;-39
2021/09/30 04:52:06;;;;;;;;;;;;;;;21.57;63.39;100749.38;2072099;28;19981;-40
2021/09/30 04:53:06;;;;;;;;;;;;;;;21.56;63.61;100742.16;2073761;28;19916;-39
2021/09/30 04:54:06;;;;;;;;;;;;;;;21.56;63.56;100744.91;2067579;28;20337;-39
2021/09/30 04:55:07;;;;;;;;;;;;;;;21.57;63.44;100746.63;2059072;28;19921;-39
2021/09/30 04:56:07;;;;;;;;;;;;;;;21.56;63.46;100751.25;2065423;28;20366;-39
2021/09/30 04:57:07;;;;;;;;;;;;;;;21.54;63.60;100734.06;2070957;28;19928;-39
2021/09/30 04:58:08;;;;;;;;;;;;;;;21.55;63.53;100740.41;2073096;28;19928;-39
2021/09/30 04:59:08;;;;;;;;;;;;;;;21.55;63.29;100744.03;2073128;28;19924;-39
2021/09/30 05:00:08;;;;;;;;;;;;;;;21.55;63.27;100740.41;2076186;28;19987;-40
2021/09/30 05:01:09;;;;;;;;;;;;;;;21.55;63.64;100745.91;2069207;28;20270;-40
2021/09/30 05:02:09;;;;;;;;;;;;;;;21.55;63.42;100751.41;2076305;28;19919;-40
2021/09/30 05:03:09;;;;;;;;;;;;;;;21.55;63.53;100740.41;2076730;28;20310;-39
2021/09/30 05:04:10;;;;;;;;;;;;;;;21.55;63.60;100745.91;2075771;28;19916;-40
2021/09/30 05:05:10;;;;;;;;;;;;;;;21.54;63.64;100750.53;2075865;28;19905;-39
2021/09/30 05:06:10;;;;;;;;;;;;;;;21.55;63.43;100751.41;2075429;28;20565;-39
2021/09/30 05:07:11;;;;;;;;;;;;;;;21.55;63.72;100751.41;2067800;28;19917;-39
2021/09/30 05:08:11;;;;;;;;;;;;;;;21.55;63.62;100740.41;2069064;28;19928;-39
2021/09/30 05:09:12;;;;;;;;;;;;;;;21.55;63.52;100745.91;2072842;28;19928;-39
2021/09/30 05:10:17;;;;;;;;;;;;;;;21.55;63.52;100752.25;2068699;28;20032;-39
2021/09/30 05:11:18;;;;;;;;;;;;;;;21.55;63.46;100751.41;2066002;28;19928;-40
2021/09/30 05:12:18;;;;;;;;;;;;;;;21.54;63.77;100758.75;2073284;28;20249;-39
2021/09/30 05:13:41;;;;;;;;;;;;;;;21.56;63.75;100758.63;2066366;28;20355;-39
2021/09/30 05:14:39;;;;;;;;;;;;;;;21.55;63.72;100749.50;2069522;28;19921;-39
2021/09/30 05:15:39;;;;;;;;;;;;;;;21.55;63.48;100745.91;2076928;28;19923;-39
2021/09/30 05:16:40;;;;;;;;;;;;;;;21.56;63.54;100755.88;2071551;28;19947;-40
2021/09/30 05:17:40;;;;;;;;;;;;;;;21.54;63.53;100747.78;2069206;28;20011;-39
2021/09/30 05:18:48;;;;;;;;;;;;;;;21.55;63.55;100748.66;2077530;28;20197;-39
2021/09/30 05:19:48;;;;;;;;;;;;;;;21.54;63.63;100750.53;2072358;28;20656;-39
2021/09/30 05:20:49;;;;;;;;;;;;;;;21.55;63.56;100752.25;2071240;28;19909;-39
2021/09/30 05:21:49;;;;;;;;;;;;;;;21.55;63.78;100746.75;2073060;28;19924;-40
2021/09/30 05:22:49;;;;;;;;;;;;;;;21.57;63.59;100747.47;2075573;28;19908;-39
2021/09/30 05:23:51;;;;;;;;;;;;;;;21.57;63.59;100757.59;2072195;28;19909;-39
2021/09/30 05:24:51;;;;;;;;;;;;;;;21.59;63.75;100753.69;2075883;28;20170;-39
2021/09/30 05:25:52;;;;;;;;;;;;;;;21.60;63.79;100749.06;2066575;28;19921;-39
2021/09/30 05:26:52;;;;;;;;;;;;;;;21.60;63.59;100749.91;2075517;28;19917;-39
2021/09/30 05:27:54;;;;;;;;;;;;;;;21.61;63.58;100745.31;2069326;28;20438;-40
2021/09/30 05:28:55;;;;;;;;;;;;;;;21.62;63.67;100753.38;2069840;28;20075;-39
2021/09/30 05:29:55;;;;;;;;;;;;;;;21.62;63.79;100755.25;2072013;28;19947;-39
2021/09/30 05:30:56;;;;;;;;;;;;;;;21.63;63.73;100751.50;2075324;28;20228;-41
2021/09/30 05:31:56;;;;;;;;;;;;;;;21.63;63.62;100751.50;2070051;28;20355;-40
2021/09/30 05:32:57;;;;;;;;;;;;;;;21.63;63.87;100754.25;2076045;28;19941;-39
2021/09/30 05:33:57;;;;;;;;;;;;;;;21.63;63.80;100759.72;2072143;28;20717;-39
2021/09/30 05:34:57;;;;;;;;;;;;;;;21.63;63.95;100748.75;2072970;28;20293;-39
2021/09/30 05:35:58;;;;;;;;;;;;;;;21.63;63.83;100756.97;2073484;28;19921;-39
2021/09/30 05:36:58;;;;;;;;;;;;;;;21.63;63.93;100754.25;2073515;28;19917;-40
2021/09/30 05:37:58;;;;;;;;;;;;;;;21.62;63.86;100752.53;2075771;28;20338;-39
2021/09/30 05:38:59;;;;;;;;;;;;;;;21.63;63.81;100756.97;2071605;28;19920;-40
2021/09/30 05:39:59;;;;;;;;;;;;;;;21.65;63.79;100759.59;2072499;28;19909;-40
2021/09/30 05:41:00;;;;;;;;;;;;;;;21.64;63.64;100755.97;2073744;28;19924;-40
2021/09/30 05:42:00;;;;;;;;;;;;;;;21.64;63.67;100755.97;2074898;28;19920;-38
2021/09/30 05:43:02;;;;;;;;;;;;;;;21.65;63.72;100754.09;2065661;28;19921;-39
2021/09/30 05:44:09;;;;;;;;;;;;;;;21.65;63.85;100757.69;2067564;28;20000;-39
2021/09/30 05:45:11;;;;;;;;;;;;;;;21.66;63.70;100761.34;2073876;28;19921;-40
2021/09/30 05:46:14;;;;;;;;;;;;;;;21.66;63.96;100764.94;2071919;28;20331;-40
2021/09/30 05:47:15;;;;;;;;;;;;;;;21.67;63.57;100768.53;2064572;28;19909;-40
2021/09/30 05:48:16;;;;;;;;;;;;;;;21.66;63.75;100767.69;2065711;28;20288;-40
2021/09/30 05:49:16;;;;;;;;;;;;;;;21.66;63.86;100764.06;2064743;28;19924;-42
2021/09/30 05:50:17;;;;;;;;;;;;;;;21.66;63.92;100761.34;2075586;28;19917;-39
2021/09/30 05:51:17;;;;;;;;;;;;;;;21.65;63.93;100763.19;2071713;28;19923;-39
2021/09/30 05:52:17;;;;;;;;;;;;;;;21.66;64.04;100764.94;2073116;28;20521;-39
2021/09/30 05:53:18;;;;;;;;;;;;;;;21.68;63.67;100765.66;2075686;28;19923;-38
2021/09/30 05:54:19;;;;;;;;;;;;;;;21.68;63.66;100759.28;2071119;28;19967;-38
2021/09/30 05:55:19;;;;;;;;;;;;;;;21.67;63.75;100766.66;2073052;28;19909;-38
2021/09/30 05:56:19;;;;;;;;;;;;;;;21.66;63.75;100756.69;2071486;28;19939;-39
2021/09/30 05:57:19;;;;;;;;;;;;;;;21.67;63.41;100763.91;2070457;28;19921;-38
2021/09/30 05:58:20;;;;;;;;;;;;;;;21.66;63.55;100756.69;2072208;28;19916;-38
2021/09/30 05:59:21;;;;;;;;;;;;;;;21.65;63.63;100765.94;2073669;28;19920;-38
2021/09/30 06:00:29;;;;;;;;;;;;;;;21.65;63.63;100762.34;2072848;28;19987;-38
2021/09/30 06:12:47;;;;;;;;;;;;;;;21.60;63.34;100752.66;2071691;28;20227;-38
2021/09/30 06:13:54;;;;;;;;;;;;;;;21.60;63.26;100754.53;2073020;28;19929;-38
2021/09/30 06:14:54;;;;;;;;;;;;;;;21.61;63.16;100757.16;2064228;28;20302;-38
2021/09/30 06:15:55;;;;;;;;;;;;;;;21.60;63.09;100754.53;2066278;28;19913;-38
2021/09/30 06:16:55;;;;;;;;;;;;;;;21.61;63.18;100753.56;2073868;28;20262;-38
2021/09/30 06:17:57;;;;;;;;;;;;;;;21.63;63.26;100751.50;2057330;28;20366;-38
2021/09/30 06:18:57;;;;;;;;;;;;;;;21.61;63.17;100751.66;2063359;28;19921;-38
2021/09/30 06:19:58;;;;;;;;;;;;;;;21.63;62.88;100765.22;2075878;28;20196;-38
2021/09/30 06:20:58;;;;;;;;;;;;;;;21.64;62.97;100758.72;2072687;28;19920;-38
2021/09/30 06:21:58;;;;;;;;;;;;;;;21.64;63.06;100764.22;2076082;28;19913;-38
2021/09/30 06:22:59;;;;;;;;;;;;;;;21.64;63.18;100755.97;2072162;28;19916;-38
2021/09/30 06:23:59;;;;;;;;;;;;;;;21.64;62.98;100766.97;2072772;28;19931;-38
2021/09/30 06:24:59;;;;;;;;;;;;;;;21.64;63.07;100761.47;2075076;28;19998;-37
2021/09/30 06:26:00;;;;;;;;;;;;;;;21.63;62.92;100765.22;2074174;28;20338;-40
2021/09/30 06:27:03;;;;;;;;;;;;;;;21.62;62.93;100758.88;2075745;28;20977;-38
2021/09/30 06:28:03;;;;;;;;;;;;;;;21.62;62.66;100760.75;2074939;28;20321;-37
2021/09/30 06:29:04;;;;;;;;;;;;;;;21.61;63.01;100765.38;2072300;28;20317;-37
2021/09/30 06:30:05;;;;;;;;;;;;;;;21.61;62.81;100764.53;2076100;28;19921;-38
2021/09/30 06:31:05;;;;;;;;;;;;;;;21.60;62.84;100765.53;2068355;28;20494;-38
2021/09/30 06:32:05;;;;;;;;;;;;;;;;;;2070078;28;19935;-37
2021/09/30 06:33:05;;;;;;;;;;;;;;;;;;2070991;28;20414;-37
2021/09/30 06:34:06;;;;;;;;;;;;;;;21.57;62.22;100763.09;2074977;28;20731;-37
2021/09/30 06:35:07;;;;;;;;;;;;;;;21.57;62.69;100769.44;2071436;28;20365;-37
2021/09/30 06:36:07;;;;;;;;;;;;;;;21.58;62.36;100764.81;2069022;28;19913;-38
2021/09/30 06:37:08;;;;;;;;;;;;;;;21.59;62.62;100764.66;2072690;28;19959;-37
2021/09/30 06:38:08;;;;;;;;;;;;;;;21.59;62.52;100770.16;2069073;28;19913;-37
2021/09/30 06:39:08;;;;;;;;;;;;;;;21.59;62.42;100764.66;2073252;28;19943;-37
2021/09/30 06:40:09;;;;;;;;;;;;;;;21.59;62.32;100770.16;2073637;28;19987;-37
2021/09/30 06:41:09;;;;;;;;;;;;;;;21.60;62.46;100760.88;2075523;28;19920;-37
2021/09/30 06:42:10;;;;;;;;;;;;;;;21.60;62.60;100769.13;2068806;28;19956;-37
2021/09/30 06:43:10;;;;;;;;;;;;;;;21.60;62.34;100765.53;2077654;28;20853;-38
2021/09/30 06:44:10;;;;;;;;;;;;;;;21.61;62.21;100767.28;2073602;28;19925;-37
2021/09/30 06:45:11;;;;;;;;;;;;;;;21.60;62.39;100762.78;2068792;28;19932;-38
2021/09/30 06:46:11;;;;;;;;;;;;;;;21.60;62.36;100765.53;2074970;28;19959;-38
2021/09/30 06:47:11;;;;;;;;;;;;;;;21.61;62.18;100770.00;2072508;28;20202;-38
2021/09/30 06:48:12;;;;;;;;;;;;;;;21.61;62.35;100773.63;2071261;28;20341;-38
2021/09/30 06:49:12;;;;;;;;;;;;;;;21.61;62.39;100775.50;2073620;28;19967;-38
2021/09/30 06:50:13;;;;;;;;;;;;;;;21.60;62.20;100771.88;2064766;28;20323;-38
2021/09/30 06:51:14;;;;;;;;;;;;;;;21.61;62.23;100767.28;2067856;28;19932;-38
2021/09/30 06:52:14;;;;;;;;;;;;;;;21.60;62.33;100765.53;2071824;28;19917;-38
2021/09/30 06:53:14;;;;;;;;;;;;;;;21.60;62.27;100776.50;2072849;28;21361;-38
2021/09/30 06:54:15;;;;;;;;;;;;;;;21.60;62.04;100771.00;2070093;28;19917;-38
2021/09/30 06:55:15;;;;;;;;;;;;;;;21.61;62.25;100778.25;2073902;28;19993;-38
2021/09/30 06:56:18;;;;;;;;;;;;;;;21.60;62.08;100779.25;2066366;28;20096;-38
2021/09/30 06:57:21;;;;;;;;;;;;;;;21.60;62.37;100773.75;2071905;28;19920;-38
2021/09/30 06:58:24;;;;;;;;;;;;;;;21.61;62.29;100778.25;2071898;28;20373;-38
2021/09/30 06:59:32;;;;;;;;;;;;;;;21.60;62.21;100781.97;2068601;28;19963;-38
2021/09/30 07:00:32;;;;;;;;;;;;;;;21.61;62.34;100778.25;2076022;28;20198;-38
2021/09/30 07:01:33;;;;;;;;;;;;;;;21.60;62.29;100781.97;2073938;28;20249;-38
2021/09/30 07:02:36;;;;;;;;;;;;;;;21.59;62.32;100780.25;2076744;28;19917;-38
2021/09/30 07:03:36;;;;;;;;;;;;;;;21.59;62.28;100783.00;2067040;28;19975;-38
2021/09/30 07:04:37;;;;;;;;;;;;;;;21.59;62.18;100785.75;2066320;28;19956;-38
2021/09/30 07:05:37;;;;;;;;;;;;;;;21.59;62.42;100783.00;2076997;28;20389;-38
2021/09/30 07:06:37;;;;;;;;;;;;;;;21.60;62.14;100787.47;2075447;28;20024;-38
2021/09/30 07:07:38;;;;;;;;;;;;;;;21.57;62.24;100785.88;2074484;28;19948;-38
2021/09/30 07:08:39;;;;;;;;;;;;;;;21.59;62.19;100791.25;2073170;28;19923;-38
2021/09/30 07:09:39;;;;;;;;;;;;;;;;;;2070770;28;19909;-38
2021/09/30 07:10:40;;;;;;;;;;;;;;;21.59;62.01;100780.25;2066954;28;19944;-38
2021/09/30 07:11:40;;;;;;;;;;;;;;;21.58;62.10;100784.00;2081281;28;20715;-38
2021/09/30 07:12:41;;;;;;;;;;;;;;;;;;2075567;28;19904;-38
2021/09/30 07:13:42;;;;;;;;;;;;;;;21.59;62.12;100791.25;2063350;28;20297;-38
2021/09/30 07:14:42;;;;;;;;;;;;;;;21.59;62.17;100785.75;2068166;28;19916;-38
2021/09/30 07:15:43;;;;;;;;;;;;;;;;;;2069453;28;20008;-40
2021/09/30 07:16:43;;;;;;;;;;;;;;;;;;2075455;28;19917;-38
2021/09/30 07:17:43;;;;;;;;;;;;;;;21.57;62.15;100794.13;2076972;28;19971;-38
2021/09/30 07:18:44;;;;;;;;;;;;;;;21.57;62.17;100790.53;2067895;28;19923;-38
2021/09/30 07:19:44;;;;;;;;;;;;;;;21.58;62.34;100794.97;2067421;28;19917;-38
2021/09/30 07:20:49;;;;;;;;;;;;;;;21.57;62.27;100791.38;2065659;28;19925;-38
2021/09/30 07:21:49;;;;;;;;;;;;;;;21.57;62.11;100798.75;2067092;28;19917;-38
2021/09/30 07:22:50;;;;;;;;;;;;;;;21.57;62.16;100793.25;2073356;28;20341;-38
2021/09/30 07:23:50;;;;;;;;;;;;;;;21.57;62.17;100793.25;2076307;28;20011;-38
2021/09/30 07:24:50;;;;;;;;;;;;;;;21.57;62.13;100796.00;2077027;28;19917;-38
2021/09/30 07:25:51;;;;;;;;;;;;;;;21.56;62.24;100797.03;2072826;28;20054;-38
2021/09/30 07:26:51;;;;;;;;;;;;;;;21.56;62.08;100795.16;2074603;28;19920;-38
2021/09/30 07:27:51;;;;;;;;;;;;;;;21.56;62.13;100799.78;2075720;28;19963;-38
2021/09/30 07:28:52;;;;;;;;;;;;;;;21.56;62.20;100800.63;2071590;28;19925;-38
2021/09/30 07:29:53;;;;;;;;;;;;;;;21.56;61.98;100803.38;2074002;28;19990;-38
2021/09/30 07:30:54;;;;;;;;;;;;;;;21.55;62.15;100795.28;2075515;28;19913;-38
2021/09/30 07:31:54;;;;;;;;;;;;;;;21.55;62.07;100798.03;2072564;28;19963;-38
2021/09/30 07:32:54;;;;;;;;;;;;;;;21.55;61.98;100803.50;2078462;28;19924;-38
2021/09/30 07:33:54;;;;;;;;;;;;;;;21.54;62.09;100799.06;2074388;28;19951;-38
2021/09/30 07:34:55;;;;;;;;;;;;;;;21.55;62.24;100800.78;2071975;28;20233;-38
2021/09/30 07:35:55;;;;;;;;;;;;;;;21.55;62.16;100800.78;2068189;28;19917;-38
2021/09/30 07:36:56;;;;;;;;;;;;;;;21.55;62.16;100804.38;2066517;28;19976;-38
2021/09/30 07:37:56;;;;;;;;;;;;;;;21.56;62.31;100810.75;2071539;28;20366;-38
2021/09/30 07:38:56;;;;;;;;;;;;;;;21.55;62.14;100809.00;2070446;28;19913;-38
2021/09/30 07:39:57;;;;;;;;;;;;;;;21.55;61.90;100800.78;2077633;28;20444;-38
2021/09/30 07:40:57;;;;;;;;;;;;;;;21.56;61.88;100810.75;2075648;28;19923;-38
2021/09/30 07:41:58;;;;;;;;;;;;;;;21.55;62.37;100807.13;2072124;28;20626;-38
2021/09/30 07:42:58;;;;;;;;;;;;;;;21.55;62.30;100806.25;2076613;28;19920;-38
2021/09/30 07:44:00;;;;;;;;;;;;;;;21.56;62.17;100808.00;2073059;28;20308;-38
2021/09/30 07:45:00;;;;;;;;;;;;;;;21.55;62.23;100809.00;2075964;28;19917;-38
2021/09/30 07:46:01;;;;;;;;;;;;;;;21.56;62.22;100805.25;2069583;28;20014;-38
2021/09/30 07:47:01;;;;;;;;;;;;;;;21.56;62.21;100813.50;2068844;28;20274;-38
2021/09/30 07:48:02;;;;;;;;;;;;;;;21.55;62.17;100812.59;2077523;28;20453;-39
2021/09/30 07:49:05;;;;;;;;;;;;;;;21.56;61.92;100813.50;2075746;28;20182;-38
2021/09/30 07:50:05;;;;;;;;;;;;;;;21.54;61.93;100810.03;2077910;28;20375;-38
2021/09/30 07:51:06;;;;;;;;;;;;;;;21.55;61.98;100817.22;2073477;28;19923;-38
2021/09/30 07:52:06;;;;;;;;;;;;;;;21.56;62.01;100821.72;2076301;28;20050;-37
2021/09/30 07:53:06;;;;;;;;;;;;;;;21.55;61.86;100814.50;2074461;28;19941;-38
2021/09/30 07:54:07;;;;;;;;;;;;;;;21.55;61.97;100822.72;2072477;28;19908;-38
2021/09/30 07:55:08;;;;;;;;;;;;;;;21.56;62.13;100824.47;2072711;28;20490;-38
2021/09/30 07:56:08;;;;;;;;;;;;;;;21.55;62.08;100817.22;2076140;28;19909;-38
2021/09/30 07:57:10;;;;;;;;;;;;;;;21.55;61.85;100822.72;2078208;28;19920;-38
2021/09/30 07:58:10;;;;;;;;;;;;;;;21.54;62.16;100821.00;2077549;28;21423;-38
2021/09/30 07:59:11;;;;;;;;;;;;;;;21.55;61.94;100817.22;2069867;28;19996;-38
2021/09/30 08:00:11;;;;;;;;;;;;;;;21.54;61.92;100821.84;2075808;28;19916;-38
2021/09/30 08:01:12;;;;;;;;;;;;;;;21.54;61.88;100824.59;2071224;28;20230;-38
2021/09/30 08:02:12;;;;;;;;;;;;;;;21.55;61.91;100825.47;2067640;28;19917;-38
2021/09/30 08:03:12;;;;;;;;;;;;;;;21.55;61.75;100817.22;2069297;28;19968;-38
2021/09/30 08:04:14;;;;;;;;;;;;;;;21.55;61.92;100820.84;2068824;28;19990;-38
2021/09/30 08:05:14;;;;;;;;;;;;;;;21.55;62.04;100819.97;2068247;28;19909;-38
2021/09/30 08:06:15;;;;;;;;;;;;;;;21.56;61.75;100829.94;2073797;28;19916;-38
2021/09/30 08:07:15;;;;;;;;;;;;;;;21.55;61.82;100829.06;2073656;28;19960;-38
2021/09/30 08:08:15;;;;;;;;;;;;;;;21.56;62.07;100829.94;2076323;28;19921;-38
2021/09/30 08:09:16;;;;;;;;;;;;;;;21.57;61.78;100828.94;2071117;28;20398;-38
2021/09/30 08:10:16;;;;;;;;;;;;;;;21.58;61.79;100819.66;2069584;28;20007;-38
2021/09/30 08:11:16;;;;;;;;;;;;;;;21.59;61.88;100829.66;2070048;28;20017;-38